Time;durP1;ratioP1;P1;durP2;ratioP2;P2;SDS_P1;SDS_P2;PMS_P1;PMS_P2;Temp;Humidity;BMP_temperature;BMP_pressure;BME280_temperature;BME280_humidity;BME280_pressure;Samples;Min_cycle;Max_cycle;Signal;HPM_P1;HPM_P2
2023/03/14 00:00:00;;;;;;;;;;;;;;;19.93;60.82;98300.63;2072515;28;20366;-57
2023/03/14 00:01:08;;;;;;;;;;;;;;;19.92;60.66;98286.34;2077239;28;19933;-56
2023/03/14 00:02:08;;;;;;;;;;;;;;;19.93;60.66;98290.69;2079902;28;19932;-56
2023/03/14 00:03:10;;;;;;;;;;;;;;;19.93;60.64;98290.69;2078870;28;20082;-55
2023/03/14 00:04:10;;;;;;;;;;;;;;;19.93;60.96;98281.78;2081226;28;20012;-58
2023/03/14 00:05:12;;;;;;;;;;;;;;;19.93;60.55;98289.84;2077833;28;19939;-58
2023/03/14 00:06:13;;;;;;;;;;;;;;;19.91;60.96;98278.47;2077649;28;19966;-58
2023/03/14 00:07:15;;;;;;;;;;;;;;;19.91;60.93;98281.16;2071765;28;19933;-58
2023/03/14 00:08:15;;;;;;;;;;;;;;;19.90;60.94;98285.72;2070943;28;19958;-56
2023/03/14 00:09:17;;;;;;;;;;;;;;;19.90;60.94;98272.28;2071258;28;20403;-54
2023/03/14 00:10:17;;;;;;;;;;;;;;;19.90;60.77;98271.47;2066157;28;19929;-56
2023/03/14 00:11:20;;;;;;;;;;;;;;;19.89;60.68;98283.25;2077010;28;19933;-56
2023/03/14 00:12:20;;;;;;;;;;;;;;;19.89;61.03;98272.47;2074894;28;19970;-56
2023/03/14 00:13:22;;;;;;;;;;;;;;;19.88;60.90;98268.16;2073898;28;19929;-57
2023/03/14 00:14:22;;;;;;;;;;;;;;;19.86;61.05;98263.81;2071519;28;19983;-56
2023/03/14 00:15:24;;;;;;;;;;;;;;;19.88;60.86;98270.84;2069754;28;19980;-56
2023/03/14 00:16:26;;;;;;;;;;;;;;;19.85;60.75;98267.53;2082752;28;19991;-56
2023/03/14 00:17:28;;;;;;;;;;;;;;;19.86;60.67;98265.66;2081157;28;20715;-58
2023/03/14 00:18:28;;;;;;;;;;;;;;;19.86;60.66;98269.22;2072936;28;20035;-56
2023/03/14 00:19:29;;;;;;;;;;;;;;;19.85;60.74;98262.16;2080981;28;20378;-57
2023/03/14 00:20:30;;;;;;;;;;;;;;;19.85;60.86;98256.78;2080173;28;19986;-58
2023/03/14 00:21:31;;;;;;;;;;;;;;;19.85;61.09;98262.16;2077111;28;22088;-56
2023/03/14 00:22:32;;;;;;;;;;;;;;;19.84;60.94;98257.00;2076040;28;19933;-57
2023/03/14 00:23:34;;;;;;;;;;;;;;;19.84;60.92;98265.91;2076051;28;19928;-58
2023/03/14 00:24:35;;;;;;;;;;;;;;;19.84;60.79;98260.53;2078274;28;19962;-56
2023/03/14 00:25:36;;;;;;;;;;;;;;;19.83;60.75;98255.34;2077394;28;20039;-56
2023/03/14 00:26:37;;;;;;;;;;;;;;;19.82;60.66;98251.84;2074298;28;20229;-57
2023/03/14 00:27:38;;;;;;;;;;;;;;;19.80;60.89;98251.22;2081337;28;19943;-57
2023/03/14 00:28:40;;;;;;;;;;;;;;;19.80;61.15;98240.47;2070013;28;19998;-57
2023/03/14 00:29:43;;;;;;;;;;;;;;;19.80;60.87;98239.66;2082396;28;19928;-56
2023/03/14 00:30:43;;;;;;;;;;;;;;;19.78;61.16;98234.50;2082536;28;19932;-57
2023/03/14 00:31:46;;;;;;;;;;;;;;;19.79;60.87;98232.63;2075644;28;19979;-57
2023/03/14 00:32:47;;;;;;;;;;;;;;;19.77;61.08;98232.84;2081121;28;20862;-56
2023/03/14 00:33:48;;;;;;;;;;;;;;;19.78;61.00;98230.97;2072526;28;19972;-57
2023/03/14 00:34:49;;;;;;;;;;;;;;;19.77;61.09;98227.44;2077782;28;19936;-55
2023/03/14 00:35:54;;;;;;;;;;;;;;;19.79;61.04;98227.25;2073532;28;20523;-57
2023/03/14 00:36:55;;;;;;;;;;;;;;;19.77;60.80;98224.75;2073283;28;19929;-57
2023/03/14 00:37:56;;;;;;;;;;;;;;;19.75;61.11;98229.56;2075570;28;19979;-57
2023/03/14 00:38:57;;;;;;;;;;;;;;;19.76;60.89;98219.63;2081495;28;20003;-56
2023/03/14 00:39:58;;;;;;;;;;;;;;;19.74;60.93;98211.75;2074984;28;19928;-56
2023/03/14 00:40:59;;;;;;;;;;;;;;;19.74;61.07;98210.94;2079894;28;20006;-57
2023/03/14 00:42:00;;;;;;;;;;;;;;;19.73;61.10;98210.13;2076855;28;19980;-57
2023/03/14 00:43:01;;;;;;;;;;;;;;;19.72;61.15;98213.84;2078091;28;20386;-56
2023/03/14 00:44:02;;;;;;;;;;;;;;;19.73;60.99;98210.13;2069744;28;20309;-56
2023/03/14 00:45:03;;;;;;;;;;;;;;;19.73;61.05;98210.13;2069933;28;20017;-57
2023/03/14 00:46:05;;;;;;;;;;;;;;;19.73;61.00;98212.00;2072147;28;19932;-56
2023/03/14 00:47:07;;;;;;;;;;;;;;;19.73;61.12;98204.75;2074176;28;19933;-58
2023/03/14 00:48:09;;;;;;;;;;;;;;;19.72;60.83;98211.16;2076068;28;19929;-55
2023/03/14 00:49:09;;;;;;;;;;;;;;;19.71;61.17;98203.31;2081763;28;19947;-56
2023/03/14 00:50:11;;;;;;;;;;;;;;;19.70;61.06;98199.81;2079163;28;20696;-63
2023/03/14 00:51:13;;;;;;;;;;;;;;;19.70;60.92;98202.50;2078345;28;20930;-55
2023/03/14 00:52:15;;;;;;;;;;;;;;;19.70;60.69;98197.13;2075812;28;19937;-56
2023/03/14 00:53:15;;;;;;;;;;;;;;;19.70;61.03;98197.13;2074567;28;19929;-57
2023/03/14 00:54:17;;;;;;;;;;;;;;;19.70;60.96;98193.59;2075729;28;19936;-56
2023/03/14 00:55:17;;;;;;;;;;;;;;;19.68;60.91;98191.13;2075707;28;20411;-58
2023/03/14 00:56:19;;;;;;;;;;;;;;;19.69;61.06;98187.38;2074498;28;19983;-57
2023/03/14 00:57:19;;;;;;;;;;;;;;;19.69;60.98;98189.25;2073949;28;20022;-57
2023/03/14 00:58:20;;;;;;;;;;;;;;;19.68;61.05;98184.91;2077793;28;19937;-57
2023/03/14 00:59:21;;;;;;;;;;;;;;;19.68;60.84;98179.53;2077563;28;20026;-55
2023/03/14 01:00:23;;;;;;;;;;;;;;;19.66;60.99;98179.75;2076474;28;19951;-57
2023/03/14 01:01:24;;;;;;;;;;;;;;;19.66;60.89;98171.69;2077396;28;19967;-54
2023/03/14 01:02:27;;;;;;;;;;;;;;;19.65;60.83;98164.63;2078663;28;20297;-57
2023/03/14 01:03:27;;;;;;;;;;;;;;;19.66;61.04;98166.28;2068584;28;19933;-57
2023/03/14 01:04:30;;;;;;;;;;;;;;;19.64;60.67;98161.13;2078392;28;19932;-56
2023/03/14 01:05:30;;;;;;;;;;;;;;;19.64;60.81;98154.94;2074844;28;19941;-56
2023/03/14 01:06:32;;;;;;;;;;;;;;;19.63;60.95;98155.94;2082139;28;20000;-56
2023/03/14 01:07:32;;;;;;;;;;;;;;;19.63;61.08;98151.38;2076085;28;19943;-56
2023/03/14 01:08:34;;;;;;;;;;;;;;;19.62;60.74;98152.44;2082591;28;19952;-56
2023/03/14 01:09:34;;;;;;;;;;;;;;;19.62;61.09;98141.69;2078276;28;19941;-56
2023/03/14 01:10:38;;;;;;;;;;;;;;;19.61;61.07;98141.88;2077461;28;19983;-56
2023/03/14 01:11:38;;;;;;;;;;;;;;;19.60;61.00;98134.88;2078679;28;19941;-56
2023/03/14 01:12:40;;;;;;;;;;;;;;;19.60;60.95;98130.31;2082238;28;19929;-55
2023/03/14 01:13:40;;;;;;;;;;;;;;;19.61;60.82;98131.97;2074931;28;20014;-55
2023/03/14 01:14:42;;;;;;;;;;;;;;;19.60;61.02;98124.13;2080783;28;19986;-55
2023/03/14 01:15:42;;;;;;;;;;;;;;;19.60;60.71;98114.16;2080686;28;19933;-55
2023/03/14 01:16:44;;;;;;;;;;;;;;;19.60;60.76;98105.28;2079164;28;20023;-56
2023/03/14 01:17:46;;;;;;;;;;;;;;;19.58;60.87;98099.28;2074382;28;20014;-56
2023/03/14 01:18:48;;;;;;;;;;;;;;;19.58;60.98;98091.22;2080351;28;20027;-55
2023/03/14 01:19:48;;;;;;;;;;;;;;;19.57;61.11;98081.53;2079255;28;19945;-55
2023/03/14 01:20:50;;;;;;;;;;;;;;;19.57;60.88;98086.91;2073947;28;20042;-57
2023/03/14 01:21:50;;;;;;;;;;;;;;;19.55;60.96;98081.72;2083820;28;20386;-56
2023/03/14 01:22:51;;;;;;;;;;;;;;;19.55;60.62;98078.22;2066709;28;20103;-56
2023/03/14 01:23:53;;;;;;;;;;;;;;;19.57;60.87;98081.53;2072773;28;19936;-56
2023/03/14 01:24:54;;;;;;;;;;;;;;;19.55;60.77;98083.59;2078284;28;19929;-56
2023/03/14 01:25:55;;;;;;;;;;;;;;;19.55;60.92;98070.16;2078605;28;20012;-57
2023/03/14 01:26:56;;;;;;;;;;;;;;;19.55;60.96;98072.84;2078625;28;20423;-56
2023/03/14 01:28:00;;;;;;;;;;;;;;;19.53;60.61;98072.25;2077306;28;20153;-57
2023/03/14 01:29:02;;;;;;;;;;;;;;;19.53;60.87;98064.16;2077581;28;19929;-55
2023/03/14 01:30:03;;;;;;;;;;;;;;;19.53;60.65;98064.16;2077199;28;20031;-56
2023/03/14 01:31:05;;;;;;;;;;;;;;;19.53;60.86;98064.16;2077499;28;19924;-55
2023/03/14 01:32:05;;;;;;;;;;;;;;;19.52;60.83;98057.16;2078708;28;19932;-56
2023/03/14 01:33:08;;;;;;;;;;;;;;;19.51;60.80;98050.97;2080645;28;19979;-57
2023/03/14 01:34:09;;;;;;;;;;;;;;;19.51;60.65;98048.28;2077953;28;20023;-55
2023/03/14 01:35:10;;;;;;;;;;;;;;;19.51;60.76;98040.19;2080013;28;19941;-56
2023/03/14 01:36:11;;;;;;;;;;;;;;;19.50;60.76;98041.25;2079354;28;20393;-56
2023/03/14 01:37:12;;;;;;;;;;;;;;;19.50;60.49;98040.41;2069025;28;19984;-58
2023/03/14 01:38:13;;;;;;;;;;;;;;;19.49;60.71;98036.09;2070560;28;19952;-56
2023/03/14 01:39:14;;;;;;;;;;;;;;;19.49;60.58;98038.78;2070387;28;19937;-57
2023/03/14 01:40:16;;;;;;;;;;;;;;;19.48;60.74;98034.47;2078266;28;20642;-58
2023/03/14 01:41:20;;;;;;;;;;;;;;;19.48;60.44;98035.28;2080960;28;19929;-57
2023/03/14 01:42:20;;;;;;;;;;;;;;;19.48;60.60;98029.06;2074615;28;20470;-57
2023/03/14 01:43:24;;;;;;;;;;;;;;;19.48;60.42;98031.78;2075780;28;19984;-57
2023/03/14 01:44:24;;;;;;;;;;;;;;;19.47;60.64;98038.16;2067652;28;19929;-57
2023/03/14 01:45:44;;;;;;;;;;;;;;;19.46;60.68;98021.22;2075257;28;20405;-57
2023/03/14 01:46:46;;;;;;;;;;;;;;;19.46;60.46;98031.16;2081303;28;19932;-57
2023/03/14 01:47:46;;;;;;;;;;;;;;;19.46;60.56;98037.34;2077989;28;19967;-58
2023/03/14 01:48:53;;;;;;;;;;;;;;;19.46;60.67;98036.53;2082684;28;19929;-57
2023/03/14 01:49:57;;;;;;;;;;;;;;;19.43;60.76;98035.94;2080673;28;20692;-56
2023/03/14 01:50:58;;;;;;;;;;;;;;;19.43;60.57;98035.13;2082581;28;19929;-58
2023/03/14 01:52:02;;;;;;;;;;;;;;;19.42;60.47;98026.22;2073117;28;19933;-55
2023/03/14 01:53:03;;;;;;;;;;;;;;;19.42;60.72;98025.41;2074455;28;19955;-56
2023/03/14 01:54:08;;;;;;;;;;;;;;;19.42;60.88;98025.41;2079511;28;20514;-58
2023/03/14 01:55:11;;;;;;;;;;;;;;;19.42;60.77;98026.22;2080689;28;19933;-56
2023/03/14 01:56:14;;;;;;;;;;;;;;;19.41;60.48;98029.94;2082717;28;20311;-57
2023/03/14 01:57:18;;;;;;;;;;;;;;;19.41;60.55;98019.19;2080266;28;20090;-57
2023/03/14 01:58:19;;;;;;;;;;;;;;;19.40;60.80;98016.75;2080986;28;19970;-55
2023/03/14 01:59:21;;;;;;;;;;;;;;;19.38;60.73;98019.63;2080914;28;20671;-57
2023/03/14 02:00:22;;;;;;;;;;;;;;;19.36;60.64;98010.16;2072334;28;19928;-57
2023/03/14 02:01:25;;;;;;;;;;;;;;;19.36;60.65;98007.47;2070340;28;19948;-56
2023/03/14 02:02:27;;;;;;;;;;;;;;;19.35;60.76;98009.34;2077373;28;20359;-58
2023/03/14 02:03:30;;;;;;;;;;;;;;;19.36;60.58;98000.25;2080761;28;19987;-57
2023/03/14 02:04:33;;;;;;;;;;;;;;;19.36;60.52;98000.25;2084238;28;19933;-55
2023/03/14 02:05:36;;;;;;;;;;;;;;;19.35;60.51;98003.13;2080692;28;19929;-57
2023/03/14 02:06:42;;;;;;;;;;;;;;;19.35;60.57;98003.94;2077268;28;20296;-57
2023/03/14 02:07:48;;;;;;;;;;;;;;;19.33;60.39;97989.91;2083154;28;19936;-57
2023/03/14 02:08:49;;;;;;;;;;;;;;;19.35;60.45;97992.38;2075418;28;20243;-55
2023/03/14 02:09:51;;;;;;;;;;;;;;;19.34;60.43;97980.00;2081377;28;19939;-57
2023/03/14 02:10:51;;;;;;;;;;;;;;;19.34;60.76;97974.63;2082020;28;19960;-58
2023/03/14 02:11:53;;;;;;;;;;;;;;;19.32;60.74;97966.75;2078553;28;19940;-56
2023/03/14 02:12:55;;;;;;;;;;;;;;;19.33;60.69;97964.88;2076943;28;20134;-58
2023/03/14 02:13:57;;;;;;;;;;;;;;;19.31;60.53;97962.44;2076508;28;20378;-57
2023/03/14 02:14:59;;;;;;;;;;;;;;;19.32;60.76;97963.25;2085272;28;19989;-57
2023/03/14 02:15:59;;;;;;;;;;;;;;;19.31;60.76;97959.75;2075892;28;19948;-57
2023/03/14 02:17:02;;;;;;;;;;;;;;;19.32;60.70;97957.88;2075327;28;19988;-58
2023/03/14 02:18:03;;;;;;;;;;;;;;;19.32;60.54;97947.94;2077919;28;19929;-56
2023/03/14 02:19:06;;;;;;;;;;;;;;;19.29;60.47;97945.69;2083054;28;19924;-58
2023/03/14 02:20:14;;;;;;;;;;;;;;;19.29;60.64;97944.88;2079181;28;19954;-57
2023/03/14 02:21:21;;;;;;;;;;;;;;;19.29;60.51;97948.41;2078804;28;20516;-55
2023/03/14 02:22:22;;;;;;;;;;;;;;;19.28;60.72;97943.22;2080633;28;19932;-57
2023/03/14 02:23:30;;;;;;;;;;;;;;;19.29;60.44;97940.31;2078028;28;19925;-57
2023/03/14 02:24:34;;;;;;;;;;;;;;;19.28;60.58;97948.59;2077484;28;20525;-56
2023/03/14 02:25:43;;;;;;;;;;;;;;;19.27;60.56;97953.16;2070236;28;23134;-57
2023/03/14 02:26:45;;;;;;;;;;;;;;;19.26;60.74;97954.22;2080762;28;19925;-58
2023/03/14 02:27:48;;;;;;;;;;;;;;;19.27;60.49;97957.72;2081512;28;19935;-57
2023/03/14 02:28:49;;;;;;;;;;;;;;;19.26;60.49;97951.53;2076037;28;19944;-57
2023/03/14 02:29:53;;;;;;;;;;;;;;;19.25;60.47;97949.91;2076642;28;19940;-58
2023/03/14 02:30:53;;;;;;;;;;;;;;;19.25;60.75;97952.59;2077708;28;19925;-56
2023/03/14 02:31:55;;;;;;;;;;;;;;;19.23;60.46;97951.97;2082119;28;19980;-56
2023/03/14 02:32:58;;;;;;;;;;;;;;;19.25;60.70;97954.44;2076815;28;19944;-56
2023/03/14 02:34:00;;;;;;;;;;;;;;;19.25;60.65;97944.53;2069872;28;20065;-57
2023/03/14 02:35:03;;;;;;;;;;;;;;;19.24;60.69;97948.25;2077335;28;20013;-57
2023/03/14 02:36:06;;;;;;;;;;;;;;;19.23;60.53;97945.78;2078930;28;19928;-58
2023/03/14 02:37:06;;;;;;;;;;;;;;;19.23;60.77;97953.84;2079960;28;21046;-57
2023/03/14 02:38:11;;;;;;;;;;;;;;;19.24;60.35;97952.81;2078622;28;20011;-58
2023/03/14 02:39:15;;;;;;;;;;;;;;;19.23;60.68;97951.97;2076168;28;19998;-57
2023/03/14 02:40:17;;;;;;;;;;;;;;;19.22;60.59;97958.38;2081436;28;19935;-57
2023/03/14 02:41:18;;;;;;;;;;;;;;;19.20;60.33;97952.44;2078949;28;20002;-57
2023/03/14 02:42:19;;;;;;;;;;;;;;;19.20;60.49;97953.25;2080499;28;21539;-57
2023/03/14 02:43:21;;;;;;;;;;;;;;;19.21;60.65;97954.06;2080718;28;19966;-57
2023/03/14 02:44:22;;;;;;;;;;;;;;;19.18;60.46;97954.53;2080894;28;20035;-57
2023/03/14 02:45:30;;;;;;;;;;;;;;;19.18;60.63;97960.72;2080773;28;19924;-54
2023/03/14 02:46:32;;;;;;;;;;;;;;;19.16;60.33;97957.41;2074882;28;19929;-55
2023/03/14 02:47:32;;;;;;;;;;;;;;;19.18;60.78;97967.97;2082850;28;19960;-56
2023/03/14 02:48:36;;;;;;;;;;;;;;;19.18;60.34;97973.34;2080957;28;19947;-55
2023/03/14 02:49:37;;;;;;;;;;;;;;;19.18;60.23;97957.22;2080585;28;19936;-57
2023/03/14 02:50:39;;;;;;;;;;;;;;;19.16;60.41;97968.16;2079399;28;19941;-56
2023/03/14 02:51:40;;;;;;;;;;;;;;;19.16;60.71;97975.41;2073004;28;19924;-55
2023/03/14 02:52:42;;;;;;;;;;;;;;;19.15;60.84;97973.78;2080300;28;20012;-56
2023/03/14 02:53:42;;;;;;;;;;;;;;;19.15;60.36;97974.59;2078614;28;19929;-56
2023/03/14 02:54:44;;;;;;;;;;;;;;;19.15;60.48;97979.97;2078092;28;19929;-56
2023/03/14 02:55:45;;;;;;;;;;;;;;;19.15;60.66;97974.59;2080137;28;19951;-58
2023/03/14 02:56:46;;;;;;;;;;;;;;;19.16;60.62;97972.72;2075685;28;19933;-52
2023/03/14 02:57:47;;;;;;;;;;;;;;;19.14;60.29;97972.97;2080535;28;20416;-55
2023/03/14 02:58:50;;;;;;;;;;;;;;;19.13;60.38;97962.44;2079520;28;19935;-55
2023/03/14 02:59:50;;;;;;;;;;;;;;;19.14;60.10;97954.16;2083362;28;19995;-57
2023/03/14 03:00:52;;;;;;;;;;;;;;;19.13;60.39;97960.56;2084375;28;19960;-53
2023/03/14 03:01:52;;;;;;;;;;;;;;;19.13;60.26;97954.34;2083016;28;19924;-58
2023/03/14 03:02:54;;;;;;;;;;;;;;;19.14;60.32;97962.22;2082014;28;19936;-57
2023/03/14 03:03:54;;;;;;;;;;;;;;;19.12;60.48;97972.38;2079559;28;19978;-56
2023/03/14 03:04:56;;;;;;;;;;;;;;;19.13;60.22;97971.31;2081162;28;19933;-55
2023/03/14 03:05:57;;;;;;;;;;;;;;;19.12;60.51;97975.03;2082691;28;19948;-57
2023/03/14 03:06:58;;;;;;;;;;;;;;;19.11;60.72;97984.16;2081712;28;19994;-56
2023/03/14 03:07:58;;;;;;;;;;;;;;;19.11;60.40;97986.84;2077057;28;19933;-56
2023/03/14 03:09:00;;;;;;;;;;;;;;;19.10;60.42;97989.75;2078221;28;19933;-56
2023/03/14 03:10:00;;;;;;;;;;;;;;;19.09;60.45;97988.94;2078668;28;20399;-56
2023/03/14 03:11:02;;;;;;;;;;;;;;;19.09;60.50;97977.38;2075818;28;19933;-56
2023/03/14 03:12:02;;;;;;;;;;;;;;;19.07;60.53;97974.06;2080007;28;19936;-56
2023/03/14 03:13:04;;;;;;;;;;;;;;;19.08;60.26;97968.47;2079216;28;20199;-55
2023/03/14 03:14:06;;;;;;;;;;;;;;;19.08;60.42;97960.41;2084445;28;20112;-59
2023/03/14 03:15:08;;;;;;;;;;;;;;;19.10;60.71;97957.50;2082045;28;20043;-58
2023/03/14 03:16:09;;;;;;;;;;;;;;;19.09;60.82;97951.31;2080593;28;20043;-58
2023/03/14 03:17:10;;;;;;;;;;;;;;;19.08;60.43;97943.44;2080682;28;19958;-61
2023/03/14 03:18:11;;;;;;;;;;;;;;;19.08;60.56;97943.44;2074658;28;19933;-56
2023/03/14 03:19:13;;;;;;;;;;;;;;;19.08;60.24;97943.44;2078882;28;19928;-57
2023/03/14 03:20:14;;;;;;;;;;;;;;;19.06;60.68;97941.00;2078377;28;19929;-59
2023/03/14 03:21:15;;;;;;;;;;;;;;;19.06;60.59;97945.56;2081408;28;20191;-59
2023/03/14 03:22:17;;;;;;;;;;;;;;;19.05;60.16;97939.34;2081874;28;20513;-57
2023/03/14 03:23:18;;;;;;;;;;;;;;;19.03;60.29;97946.81;2083958;28;19971;-59
2023/03/14 03:24:19;;;;;;;;;;;;;;;19.02;60.68;97947.84;2083558;28;20019;-57
2023/03/14 03:25:20;;;;;;;;;;;;;;;19.02;60.36;97949.72;2082405;28;19956;-59
2023/03/14 03:26:21;;;;;;;;;;;;;;;19.04;60.43;97953.03;2076032;28;20024;-56
2023/03/14 03:27:22;;;;;;;;;;;;;;;19.04;60.39;97950.34;2076987;28;20044;-59
2023/03/14 03:28:23;;;;;;;;;;;;;;;19.03;60.37;97952.19;2081194;28;19933;-58
2023/03/14 03:29:25;;;;;;;;;;;;;;;19.03;60.65;97962.09;2078992;28;20015;-59
2023/03/14 03:30:27;;;;;;;;;;;;;;;19.02;60.41;97960.47;2080188;28;19933;-57
2023/03/14 03:31:27;;;;;;;;;;;;;;;19.01;60.50;97956.97;2077988;28;19998;-58
2023/03/14 03:32:29;;;;;;;;;;;;;;;19.03;60.31;97965.63;2080028;28;20327;-59
2023/03/14 03:33:29;;;;;;;;;;;;;;;19.02;60.45;97961.28;2079392;28;20023;-57
2023/03/14 03:34:30;;;;;;;;;;;;;;;19.00;60.34;97954.50;2067997;28;19940;-57
2023/03/14 03:35:31;;;;;;;;;;;;;;;19.00;60.31;97968.78;2077595;28;20051;-58
2023/03/14 03:36:32;;;;;;;;;;;;;;;19.01;60.33;97966.91;2082366;28;19940;-57
2023/03/14 03:37:34;;;;;;;;;;;;;;;19.01;60.53;97969.59;2082228;28;19982;-57
2023/03/14 03:38:35;;;;;;;;;;;;;;;18.99;60.41;97956.38;2081512;28;19928;-57
2023/03/14 03:39:35;;;;;;;;;;;;;;;18.98;60.43;97955.56;2078902;28;19929;-57
2023/03/14 03:40:37;;;;;;;;;;;;;;;18.98;60.77;97960.94;2081481;28;19929;-57
2023/03/14 03:41:37;;;;;;;;;;;;;;;18.97;60.30;97956.59;2074310;28;19974;-58
2023/03/14 03:42:39;;;;;;;;;;;;;;;18.96;60.78;97957.63;2074686;28;19987;-59
2023/03/14 03:43:39;;;;;;;;;;;;;;;18.97;60.85;97964.66;2082827;28;19928;-58
2023/03/14 03:44:42;;;;;;;;;;;;;;;18.97;60.35;97951.22;2077703;28;19936;-57
2023/03/14 03:45:42;;;;;;;;;;;;;;;18.98;60.24;97957.41;2076702;28;20833;-57
2023/03/14 03:46:44;;;;;;;;;;;;;;;18.94;60.44;97957.06;2078895;28;20464;-59
2023/03/14 03:47:44;;;;;;;;;;;;;;;18.95;60.44;97956.00;2079182;28;19982;-58
2023/03/14 03:48:46;;;;;;;;;;;;;;;18.93;60.33;97950.00;2075247;28;20382;-58
2023/03/14 03:49:46;;;;;;;;;;;;;;;18.93;60.38;97946.50;2080704;28;19928;-58
2023/03/14 03:50:48;;;;;;;;;;;;;;;18.92;60.72;97943.00;2080127;28;21877;-59
2023/03/14 03:51:48;;;;;;;;;;;;;;;18.94;60.82;97954.38;2078843;28;20422;-56
2023/03/14 03:52:49;;;;;;;;;;;;;;;18.93;60.36;97960.75;2072818;28;19933;-58
2023/03/14 03:53:50;;;;;;;;;;;;;;;18.93;60.72;97971.50;2080551;28;20027;-58
2023/03/14 03:54:52;;;;;;;;;;;;;;;18.92;60.71;97972.56;2086420;28;19933;-57
2023/03/14 03:55:52;;;;;;;;;;;;;;;18.92;60.50;97985.19;2081317;28;19928;-57
2023/03/14 03:56:53;;;;;;;;;;;;;;;18.90;60.59;97974.66;2077773;28;20479;-58
2023/03/14 03:57:54;;;;;;;;;;;;;;;18.91;60.33;97970.09;2079161;28;19924;-58
2023/03/14 03:58:55;;;;;;;;;;;;;;;18.91;60.33;97970.91;2078566;28;19991;-57
2023/03/14 03:59:57;;;;;;;;;;;;;;;18.89;60.13;97962.25;2084748;28;19954;-57
2023/03/14 04:00:59;;;;;;;;;;;;;;;18.89;60.18;97964.94;2078375;28;20054;-57
2023/03/14 04:01:59;;;;;;;;;;;;;;;18.87;60.44;97950.91;2077926;28;19929;-57
2023/03/14 04:03:01;;;;;;;;;;;;;;;18.87;60.58;97963.53;2078958;28;19990;-59
2023/03/14 04:04:01;;;;;;;;;;;;;;;18.87;60.46;97958.16;2080230;28;19928;-57
2023/03/14 04:05:03;;;;;;;;;;;;;;;18.86;60.53;97948.44;2078631;28;20615;-57
2023/03/14 04:06:04;;;;;;;;;;;;;;;18.85;60.62;97952.16;2082158;28;19925;-57
2023/03/14 04:07:06;;;;;;;;;;;;;;;18.85;60.76;97955.66;2079146;28;19932;-57
2023/03/14 04:08:06;;;;;;;;;;;;;;;18.85;60.60;97955.66;2084890;28;19928;-57
2023/03/14 04:09:08;;;;;;;;;;;;;;;18.85;60.64;97944.94;2076330;28;19933;-58
2023/03/14 04:10:09;;;;;;;;;;;;;;;18.85;60.64;97942.25;2082865;28;19928;-58
2023/03/14 04:11:10;;;;;;;;;;;;;;;18.84;60.52;97940.59;2081309;28;19929;-57
2023/03/14 04:12:11;;;;;;;;;;;;;;;18.86;60.41;97935.84;2079085;28;19933;-58
2023/03/14 04:13:12;;;;;;;;;;;;;;;18.85;60.65;97928.81;2078541;28;19933;-57
2023/03/14 04:14:13;;;;;;;;;;;;;;;18.87;60.14;97910.59;2081756;28;19932;-59
2023/03/14 04:15:15;;;;;;;;;;;;;;;18.87;60.19;97897.16;2080386;28;19925;-58
2023/03/14 04:16:17;;;;;;;;;;;;;;;18.87;60.45;97869.50;2080766;28;20476;-58
2023/03/14 04:17:19;;;;;;;;;;;;;;;18.87;60.11;97853.38;2080917;28;20019;-59
2023/03/14 04:18:19;;;;;;;;;;;;;;;18.87;60.20;97824.63;2079013;28;19992;-58
2023/03/14 04:19:21;;;;;;;;;;;;;;;18.86;60.43;97801.50;2078896;28;19968;-57
2023/03/14 04:20:22;;;;;;;;;;;;;;;18.87;60.22;97818.44;2076006;28;19937;-56
2023/03/14 04:21:23;;;;;;;;;;;;;;;18.88;59.94;97836.19;2080392;28;19929;-56
2023/03/14 04:22:23;;;;;;;;;;;;;;;18.87;60.28;97848.81;2081467;28;19986;-56
2023/03/14 04:23:25;;;;;;;;;;;;;;;18.88;59.82;97852.31;2068610;28;19975;-58
2023/03/14 04:24:26;;;;;;;;;;;;;;;18.87;59.88;97850.69;2076987;28;19928;-58
2023/03/14 04:25:27;;;;;;;;;;;;;;;18.87;59.89;97853.38;2079443;28;19929;-57
2023/03/14 04:26:27;;;;;;;;;;;;;;;18.89;59.75;97857.47;2080577;28;19951;-59
2023/03/14 04:27:29;;;;;;;;;;;;;;;18.88;59.93;97852.31;2081551;28;19933;-57
2023/03/14 04:28:29;;;;;;;;;;;;;;;18.90;59.77;97851.03;2085343;28;19956;-58
2023/03/14 04:29:31;;;;;;;;;;;;;;;18.88;59.52;97826.25;2079851;28;19933;-59
2023/03/14 04:30:32;;;;;;;;;;;;;;;18.89;59.80;97832.47;2076052;28;20030;-57
2023/03/14 04:31:34;;;;;;;;;;;;;;;18.89;59.99;97833.28;2077686;28;19939;-58
2023/03/14 04:32:34;;;;;;;;;;;;;;;18.88;59.56;97853.13;2076593;28;20008;-58
2023/03/14 04:33:37;;;;;;;;;;;;;;;18.89;59.63;97854.78;2081734;28;19928;-56
2023/03/14 04:34:38;;;;;;;;;;;;;;;18.90;59.69;97859.09;2078775;28;19932;-58
2023/03/14 04:35:39;;;;;;;;;;;;;;;18.92;59.38;97870.44;2081561;28;19928;-57
2023/03/14 04:36:40;;;;;;;;;;;;;;;18.93;59.47;97876.66;2079134;28;19932;-57
2023/03/14 04:37:43;;;;;;;;;;;;;;;18.94;59.73;97878.28;2078891;28;19941;-57
2023/03/14 04:38:43;;;;;;;;;;;;;;;18.93;59.87;97866.72;2078719;28;19936;-59
2023/03/14 04:39:45;;;;;;;;;;;;;;;18.94;59.63;97871.06;2082789;28;19939;-59
2023/03/14 04:40:45;;;;;;;;;;;;;;;18.97;59.56;97875.97;2072084;28;20056;-56
2023/03/14 04:41:46;;;;;;;;;;;;;;;18.98;59.40;97874.94;2078344;28;20008;-57
2023/03/14 04:42:47;;;;;;;;;;;;;;;19.03;59.41;97881.47;2080929;28;19933;-57
2023/03/14 04:43:48;;;;;;;;;;;;;;;19.05;59.33;97874.84;2080794;28;19929;-57
2023/03/14 04:44:49;;;;;;;;;;;;;;;19.10;59.21;97882.25;2077739;28;19964;-57
2023/03/14 04:45:52;;;;;;;;;;;;;;;19.14;59.09;97881.56;2076264;28;19925;-56
2023/03/14 04:46:53;;;;;;;;;;;;;;;19.20;59.13;97877.16;2076346;28;19933;-57
2023/03/14 04:47:54;;;;;;;;;;;;;;;19.23;59.09;97883.97;2076983;28;20295;-56
2023/03/14 04:48:56;;;;;;;;;;;;;;;19.26;59.20;97887.00;2075481;28;19986;-57
2023/03/14 04:49:57;;;;;;;;;;;;;;;19.28;58.78;97882.22;2076450;28;19936;-56
2023/03/14 04:50:58;;;;;;;;;;;;;;;19.31;58.99;97880.97;2077659;28;19937;-57
2023/03/14 04:51:59;;;;;;;;;;;;;;;19.35;59.09;97885.63;2077561;28;19932;-57
2023/03/14 04:53:00;;;;;;;;;;;;;;;19.38;58.84;97877.13;2071297;28;20448;-58
2023/03/14 04:54:01;;;;;;;;;;;;;;;19.40;58.78;97875.03;2075911;28;19979;-59
2023/03/14 04:55:02;;;;;;;;;;;;;;;19.43;58.76;97879.94;2072993;28;20009;-57
2023/03/14 04:56:04;;;;;;;;;;;;;;;19.46;58.83;97867.09;2075121;28;20371;-57
2023/03/14 04:57:04;;;;;;;;;;;;;;;19.49;58.60;97870.16;2077465;28;20411;-57
2023/03/14 04:58:05;;;;;;;;;;;;;;;19.52;59.01;97893.09;2080116;28;19956;-57
2023/03/14 04:59:06;;;;;;;;;;;;;;;19.53;58.71;97892.03;2084954;28;20483;-57
2023/03/14 05:00:08;;;;;;;;;;;;;;;19.55;58.72;97904.19;2080493;28;19933;-59
2023/03/14 05:01:10;;;;;;;;;;;;;;;19.58;58.57;97911.00;2081229;28;19998;-58
2023/03/14 05:02:12;;;;;;;;;;;;;;;19.60;58.50;97903.53;2076944;28;20008;-56
2023/03/14 05:03:14;;;;;;;;;;;;;;;19.62;58.78;97901.44;2074400;28;19986;-56
2023/03/14 05:04:15;;;;;;;;;;;;;;;19.65;58.78;97892.91;2076282;28;20300;-59
2023/03/14 05:05:16;;;;;;;;;;;;;;;19.67;58.27;97888.16;2073825;28;20473;-59
2023/03/14 05:06:17;;;;;;;;;;;;;;;19.68;58.62;97887.09;2079112;28;19972;-58
2023/03/14 05:07:18;;;;;;;;;;;;;;;19.70;58.65;97879.63;2074834;28;21813;-58
2023/03/14 05:08:19;;;;;;;;;;;;;;;19.71;58.58;97878.56;2083568;28;19986;-57
2023/03/14 05:09:21;;;;;;;;;;;;;;;19.73;58.56;97881.06;2077127;28;20058;-58
2023/03/14 05:10:21;;;;;;;;;;;;;;;19.74;58.13;97878.09;2075887;28;20524;-58
2023/03/14 05:11:22;;;;;;;;;;;;;;;19.78;58.52;97889.22;2076238;28;19941;-57
2023/03/14 05:12:23;;;;;;;;;;;;;;;19.77;58.60;97877.66;2076333;28;20571;-58
2023/03/14 05:13:24;;;;;;;;;;;;;;;19.79;58.51;97874.75;2078836;28;19991;-59
2023/03/14 05:14:25;;;;;;;;;;;;;;;19.80;58.22;97874.50;2075528;28;20482;-57
2023/03/14 05:15:26;;;;;;;;;;;;;;;19.80;58.19;97871.81;2078833;28;19925;-57
2023/03/14 05:16:28;;;;;;;;;;;;;;;19.81;58.46;97870.78;2076933;28;20686;-58
2023/03/14 05:17:30;;;;;;;;;;;;;;;19.84;58.41;97880.25;2086368;28;20015;-57
2023/03/14 05:18:30;;;;;;;;;;;;;;;19.85;58.50;97868.44;2068116;28;20426;-59
2023/03/14 05:19:32;;;;;;;;;;;;;;;19.85;58.42;97861.19;2077662;28;19963;-56
2023/03/14 05:20:32;;;;;;;;;;;;;;;19.86;58.36;97862.84;2076633;28;20037;-58